createdAt,value
2023-03-31T00:01:00.371Z,14
2023-03-31T00:02:07.228Z,14
2023-03-31T00:03:14.051Z,16
2023-03-31T00:04:20.842Z,17
2023-03-31T00:05:27.583Z,16
2023-03-31T00:06:34.340Z,16
2023-03-31T00:07:41.093Z,16
2023-03-31T00:08:47.880Z,14
2023-03-31T00:10:00.829Z,14
2023-03-31T00:11:01.731Z,14
2023-03-31T00:12:08.476Z,15
2023-03-31T00:13:18.171Z,13
2023-03-31T00:14:24.977Z,15
2023-03-31T00:15:31.776Z,15
2023-03-31T00:16:38.590Z,16
2023-03-31T00:17:45.469Z,15
2023-03-31T00:18:52.252Z,15
2023-03-31T00:19:59.081Z,16
2023-03-31T00:21:05.888Z,15
2023-03-31T00:22:15.357Z,14
2023-03-31T00:23:22.121Z,15
2023-03-31T00:24:28.937Z,16
2023-03-31T00:25:35.727Z,16
2023-03-31T00:26:42.636Z,16
2023-03-31T00:27:49.628Z,14
2023-03-31T00:28:56.393Z,14
2023-03-31T00:30:03.285Z,16
2023-03-31T00:31:10.465Z,16
2023-03-31T00:32:17.243Z,15
2023-03-31T00:33:24.010Z,17
2023-03-31T00:34:30.765Z,15
2023-03-31T00:35:37.538Z,16
2023-03-31T00:36:44.324Z,15
2023-03-31T00:37:51.048Z,15
2023-03-31T00:38:57.825Z,14
2023-03-31T00:40:04.558Z,14
2023-03-31T00:41:14.130Z,14
2023-03-31T00:42:20.937Z,16
2023-03-31T00:43:27.740Z,14
2023-03-31T00:44:37.580Z,14
2023-03-31T00:45:51.997Z,14
2023-03-31T00:46:58.688Z,14
2023-03-31T00:48:10.603Z,16
2023-03-31T00:49:17.317Z,14
2023-03-31T00:50:26.747Z,14
2023-03-31T00:51:33.685Z,14
2023-03-31T00:52:40.463Z,14
2023-03-31T00:53:47.241Z,13
2023-03-31T00:54:54.039Z,14
2023-03-31T00:56:03.750Z,13
2023-03-31T00:57:10.510Z,12
2023-03-31T00:58:17.228Z,14
2023-03-31T00:59:24.023Z,14
2023-03-31T01:00:30.899Z,15
2023-03-31T01:01:37.742Z,15
2023-03-31T01:02:44.436Z,13
2023-03-31T01:03:51.494Z,14
2023-03-31T01:04:58.313Z,14
2023-03-31T01:06:05.298Z,12
2023-03-31T01:07:11.941Z,13
2023-03-31T01:08:21.404Z,12
2023-03-31T01:09:28.169Z,12
2023-03-31T01:10:34.941Z,12
2023-03-31T01:11:44.886Z,13
2023-03-31T01:12:51.797Z,12
2023-03-31T01:13:58.528Z,12
2023-03-31T01:15:05.292Z,13
2023-03-31T01:16:12.216Z,13
2023-03-31T01:17:19.229Z,13
2023-03-31T01:18:25.862Z,13
2023-03-31T01:19:32.557Z,13
2023-03-31T01:20:42.143Z,12
2023-03-31T01:21:56.863Z,12
2023-03-31T01:23:11.478Z,12
2023-03-31T01:24:26.238Z,11
2023-03-31T01:25:43.114Z,12
2023-03-31T01:26:54.979Z,12
2023-03-31T01:28:04.275Z,11
2023-03-31T01:29:16.146Z,13
2023-03-31T01:30:22.876Z,12
2023-03-31T01:31:32.284Z,13
2023-03-31T01:32:44.556Z,14
2023-03-31T01:33:59.293Z,13
2023-03-31T01:35:16.128Z,13
2023-03-31T01:36:27.932Z,12
2023-03-31T01:37:39.822Z,13
2023-03-31T01:38:51.708Z,11
2023-03-31T01:40:08.617Z,13
2023-03-31T01:41:23.025Z,12
2023-03-31T01:42:34.918Z,12
2023-03-31T01:43:47.901Z,13
2023-03-31T01:44:57.474Z,12
2023-03-31T01:46:04.451Z,11
2023-03-31T01:47:18.877Z,12
2023-03-31T01:48:28.700Z,12
2023-03-31T01:49:35.470Z,12
2023-03-31T01:50:52.375Z,12
2023-03-31T01:52:07.382Z,11
2023-03-31T01:53:22.104Z,12
2023-03-31T01:54:36.701Z,13
2023-03-31T01:55:48.578Z,12
2023-03-31T01:56:58.040Z,12
2023-03-31T01:58:04.806Z,11
2023-03-31T01:59:16.628Z,11
2023-03-31T02:00:23.519Z,12
2023-03-31T02:01:31.322Z,11
2023-03-31T02:02:47.361Z,11
2023-03-31T02:03:56.855Z,10
2023-03-31T02:05:03.472Z,12
2023-03-31T02:06:15.404Z,12
2023-03-31T02:07:22.219Z,11
2023-03-31T02:08:33.970Z,12
2023-03-31T02:09:43.633Z,11
2023-03-31T02:10:53.070Z,10
2023-03-31T02:11:59.852Z,10
2023-03-31T02:13:06.746Z,11
2023-03-31T02:14:13.551Z,10
2023-03-31T02:15:22.920Z,11
2023-03-31T02:16:29.658Z,11
2023-03-31T02:17:36.435Z,11
2023-03-31T02:18:43.193Z,10
2023-03-31T02:19:50.057Z,11
2023-03-31T02:20:56.735Z,10
2023-03-31T02:22:03.501Z,10
2023-03-31T02:23:10.211Z,11
2023-03-31T02:24:17.045Z,11
2023-03-31T02:25:23.925Z,10
2023-03-31T02:26:33.587Z,10
2023-03-31T02:27:40.356Z,10
2023-03-31T02:28:47.165Z,11
2023-03-31T02:29:53.922Z,12
2023-03-31T02:31:00.742Z,11
2023-03-31T02:32:12.643Z,10
2023-03-31T02:33:27.174Z,10
2023-03-31T02:34:33.962Z,9
2023-03-31T02:35:40.839Z,10
2023-03-31T02:36:47.578Z,9
2023-03-31T02:37:54.489Z,9
2023-03-31T02:39:01.238Z,10
2023-03-31T02:40:07.982Z,9
2023-03-31T02:41:14.731Z,9
2023-03-31T02:42:21.612Z,10
2023-03-31T02:43:28.477Z,11
2023-03-31T02:44:35.205Z,10
2023-03-31T02:45:42.020Z,10
2023-03-31T02:46:48.790Z,9
2023-03-31T02:47:55.592Z,9
2023-03-31T02:49:02.438Z,9
2023-03-31T02:50:09.160Z,9
2023-03-31T02:51:15.948Z,9
2023-03-31T02:52:27.742Z,9
2023-03-31T02:53:42.166Z,10
2023-03-31T02:54:54.000Z,8
2023-03-31T02:56:05.990Z,9
2023-03-31T02:57:20.385Z,8
2023-03-31T02:58:32.248Z,7
2023-03-31T02:59:44.088Z,8
2023-03-31T03:01:01.133Z,8
2023-03-31T03:02:18.091Z,7
2023-03-31T03:03:34.988Z,7
2023-03-31T03:04:44.583Z,8
2023-03-31T03:05:59.492Z,7
2023-03-31T03:07:13.835Z,7
2023-03-31T03:08:28.721Z,7
2023-03-31T03:09:40.614Z,7
2023-03-31T03:10:50.038Z,7
2023-03-31T03:12:04.810Z,7
2023-03-31T03:13:14.567Z,7
2023-03-31T03:14:31.620Z,8
2023-03-31T03:15:43.531Z,7
2023-03-31T03:16:50.337Z,7
2023-03-31T03:17:57.207Z,7
2023-03-31T03:19:03.970Z,7
2023-03-31T03:20:10.760Z,7
2023-03-31T03:21:17.546Z,7
2023-03-31T03:22:24.432Z,7
2023-03-31T03:23:31.141Z,7
2023-03-31T03:24:37.895Z,8
2023-03-31T03:25:44.665Z,8
2023-03-31T03:26:51.418Z,8
2023-03-31T03:27:58.278Z,8
2023-03-31T03:29:04.993Z,8
2023-03-31T03:30:11.790Z,8
2023-03-31T03:31:18.510Z,7
2023-03-31T03:32:25.252Z,8
2023-03-31T03:33:32.151Z,8
2023-03-31T03:34:38.889Z,7
2023-03-31T03:35:45.696Z,7
2023-03-31T03:36:52.413Z,7
2023-03-31T03:37:59.197Z,7
2023-03-31T03:39:05.909Z,6
2023-03-31T03:40:12.661Z,6
2023-03-31T03:41:19.399Z,6
2023-03-31T03:42:26.172Z,7
2023-03-31T03:43:32.903Z,6
2023-03-31T03:44:39.726Z,6
2023-03-31T03:45:46.567Z,7
2023-03-31T03:46:53.361Z,7
2023-03-31T03:48:00.236Z,7
2023-03-31T03:49:06.978Z,8
2023-03-31T03:50:15.908Z,8
2023-03-31T03:51:20.749Z,9
2023-03-31T03:52:27.498Z,8
2023-03-31T03:53:34.295Z,8
2023-03-31T03:54:41.085Z,7
2023-03-31T03:55:47.936Z,7
2023-03-31T03:56:54.789Z,7
2023-03-31T03:58:01.535Z,7
2023-03-31T03:59:08.276Z,6
2023-03-31T04:00:15.128Z,7
2023-03-31T04:01:22.168Z,7
2023-03-31T04:02:29.121Z,7
2023-03-31T04:03:35.725Z,8
2023-03-31T04:04:42.528Z,7
2023-03-31T04:05:49.189Z,7
2023-03-31T04:06:55.954Z,8
2023-03-31T04:08:02.807Z,7
2023-03-31T04:09:09.567Z,6
2023-03-31T04:10:16.310Z,7
2023-03-31T04:11:23.006Z,6
2023-03-31T04:12:29.711Z,7
2023-03-31T04:13:39.259Z,6
2023-03-31T04:14:46.024Z,7
2023-03-31T04:15:52.776Z,7
2023-03-31T04:16:59.509Z,7
2023-03-31T04:18:06.223Z,7
2023-03-31T04:19:15.774Z,7
2023-03-31T04:20:22.495Z,7
2023-03-31T04:21:32.330Z,7
2023-03-31T04:22:39.290Z,7
2023-03-31T04:23:46.050Z,6
2023-03-31T04:24:56.080Z,7
2023-03-31T04:26:02.853Z,7
2023-03-31T04:27:09.563Z,6
2023-03-31T04:28:16.301Z,7
2023-03-31T04:29:23.127Z,6
2023-03-31T04:30:29.885Z,6
2023-03-31T04:31:36.667Z,7
2023-03-31T04:32:43.401Z,8
2023-03-31T04:33:50.187Z,9
2023-03-31T04:34:57.030Z,7
2023-03-31T04:36:04.499Z,8
2023-03-31T04:37:15.865Z,7
2023-03-31T04:38:22.710Z,7
2023-03-31T04:39:32.578Z,7
2023-03-31T04:40:39.443Z,7
2023-03-31T04:41:46.149Z,7
2023-03-31T04:42:52.893Z,7
2023-03-31T04:43:59.692Z,8
2023-03-31T04:45:06.567Z,8
2023-03-31T04:46:13.616Z,8
2023-03-31T04:47:20.343Z,6
2023-03-31T04:48:27.127Z,8
2023-03-31T04:49:33.871Z,7
2023-03-31T04:50:40.659Z,8
2023-03-31T04:51:47.386Z,7
2023-03-31T04:52:54.310Z,8
2023-03-31T04:54:01.076Z,7
2023-03-31T04:55:07.815Z,7
2023-03-31T04:56:14.704Z,6
2023-03-31T04:57:21.602Z,7
2023-03-31T04:58:28.290Z,6
2023-03-31T04:59:35.086Z,7
2023-03-31T05:00:41.982Z,7
2023-03-31T05:01:48.982Z,7
2023-03-31T05:02:56.081Z,8
2023-03-31T05:04:02.723Z,7
2023-03-31T05:05:09.544Z,8
2023-03-31T05:06:16.349Z,7
2023-03-31T05:07:23.159Z,7
2023-03-31T05:08:30.069Z,7
2023-03-31T05:09:36.802Z,7
2023-03-31T05:10:43.538Z,7
2023-03-31T05:11:50.280Z,7
2023-03-31T05:12:56.990Z,7
2023-03-31T05:14:03.853Z,6
2023-03-31T05:15:10.570Z,6
2023-03-31T05:16:17.350Z,6
2023-03-31T05:17:24.026Z,6
2023-03-31T05:18:30.804Z,7
2023-03-31T05:19:37.640Z,6
2023-03-31T05:20:44.432Z,6
2023-03-31T05:21:51.180Z,6
2023-03-31T05:22:57.968Z,6
2023-03-31T05:24:04.758Z,5
2023-03-31T05:25:11.801Z,6
2023-03-31T05:26:18.618Z,6
2023-03-31T05:27:25.380Z,6
2023-03-31T05:28:32.551Z,6
2023-03-31T05:29:39.011Z,6
2023-03-31T05:30:45.898Z,7
2023-03-31T05:31:52.663Z,6
2023-03-31T05:32:59.412Z,6
2023-03-31T05:34:06.146Z,6
2023-03-31T05:35:12.922Z,6
2023-03-31T05:36:19.938Z,5
2023-03-31T05:37:26.650Z,6
2023-03-31T05:38:33.527Z,5
2023-03-31T05:39:40.253Z,6
2023-03-31T05:40:47.075Z,7
2023-03-31T05:41:53.874Z,6
2023-03-31T05:43:00.622Z,6
2023-03-31T05:44:07.453Z,7
2023-03-31T05:45:14.181Z,6
2023-03-31T05:46:21.027Z,7
2023-03-31T05:47:27.864Z,6
2023-03-31T05:48:34.665Z,7
2023-03-31T05:49:41.379Z,5
2023-03-31T05:50:48.142Z,6
2023-03-31T05:51:54.905Z,5
2023-03-31T05:53:01.668Z,7
2023-03-31T05:54:08.516Z,6
2023-03-31T05:55:15.316Z,6
2023-03-31T05:56:22.154Z,5
2023-03-31T05:57:28.888Z,5
2023-03-31T05:58:35.816Z,6
2023-03-31T05:59:42.697Z,6
2023-03-31T06:00:49.537Z,6
2023-03-31T06:02:04.246Z,5
2023-03-31T06:03:11.084Z,5
2023-03-31T06:04:17.970Z,6
2023-03-31T06:05:24.724Z,6
2023-03-31T06:06:31.492Z,6
2023-03-31T06:07:38.346Z,5
2023-03-31T06:08:45.153Z,5
2023-03-31T06:09:51.962Z,4
2023-03-31T06:10:59.508Z,5
2023-03-31T06:12:07.372Z,5
2023-03-31T06:13:14.210Z,5
2023-03-31T06:14:21.019Z,5
2023-03-31T06:15:27.840Z,5
2023-03-31T06:16:34.632Z,6
2023-03-31T06:17:41.401Z,5
2023-03-31T06:18:48.296Z,5
2023-03-31T06:19:55.200Z,5
2023-03-31T06:21:01.964Z,6
2023-03-31T06:22:08.754Z,5
2023-03-31T06:23:15.509Z,6
2023-03-31T06:24:22.349Z,6
2023-03-31T06:25:32.499Z,6
2023-03-31T06:26:35.891Z,6
2023-03-31T06:27:42.704Z,6
2023-03-31T06:28:49.485Z,6
2023-03-31T06:29:56.270Z,5
2023-03-31T06:31:03.230Z,5
2023-03-31T06:32:10.034Z,5
2023-03-31T06:33:16.748Z,6
2023-03-31T06:34:23.531Z,6
2023-03-31T06:35:30.449Z,5
2023-03-31T06:36:37.230Z,6
2023-03-31T06:37:43.987Z,5
2023-03-31T06:38:50.825Z,5
2023-03-31T06:39:57.627Z,5
2023-03-31T06:41:04.652Z,5
2023-03-31T06:42:11.175Z,5
2023-03-31T06:43:18.035Z,6
2023-03-31T06:44:24.772Z,5
2023-03-31T06:45:31.627Z,5
2023-03-31T06:46:38.461Z,5
2023-03-31T06:47:45.323Z,5
2023-03-31T06:48:52.144Z,6
2023-03-31T06:49:58.975Z,5
2023-03-31T06:51:05.758Z,5
2023-03-31T06:52:12.542Z,6
2023-03-31T06:53:19.360Z,6
2023-03-31T06:54:26.171Z,5
2023-03-31T06:55:33.024Z,5
2023-03-31T06:56:39.727Z,6
2023-03-31T06:57:46.440Z,6
2023-03-31T06:58:53.243Z,5
2023-03-31T07:00:00.120Z,5
2023-03-31T07:01:07.389Z,5
2023-03-31T07:02:13.869Z,5
2023-03-31T07:03:20.664Z,5
2023-03-31T07:04:27.535Z,6
2023-03-31T07:05:34.411Z,5
2023-03-31T07:06:41.159Z,6
2023-03-31T07:07:47.930Z,5
2023-03-31T07:08:54.701Z,5
2023-03-31T07:10:01.528Z,5
2023-03-31T07:11:09.006Z,5
2023-03-31T07:12:15.490Z,5
2023-03-31T07:13:22.232Z,5
2023-03-31T07:14:28.961Z,4
2023-03-31T07:15:35.744Z,5
2023-03-31T07:16:42.682Z,5
2023-03-31T07:17:49.362Z,5
2023-03-31T07:18:56.073Z,5
2023-03-31T07:20:02.795Z,5
2023-03-31T07:21:10.425Z,5
2023-03-31T07:22:16.771Z,5
2023-03-31T07:23:23.501Z,5
2023-03-31T07:24:30.280Z,5
2023-03-31T07:25:37.026Z,5
2023-03-31T07:26:43.785Z,6
2023-03-31T07:27:50.589Z,5
2023-03-31T07:28:57.486Z,5
2023-03-31T07:30:04.231Z,5
2023-03-31T07:31:11.239Z,5
2023-03-31T07:32:18.181Z,5
2023-03-31T07:33:24.787Z,5
2023-03-31T07:34:31.622Z,5
2023-03-31T07:35:38.516Z,5
2023-03-31T07:36:45.263Z,4
2023-03-31T07:37:51.951Z,5
2023-03-31T07:38:58.819Z,5
2023-03-31T07:40:05.621Z,4
2023-03-31T07:41:12.497Z,4
2023-03-31T07:42:19.193Z,4
2023-03-31T07:43:25.963Z,5
2023-03-31T07:44:32.877Z,5
2023-03-31T07:45:39.781Z,5
2023-03-31T07:46:46.538Z,5
2023-03-31T07:47:53.469Z,5
2023-03-31T07:49:00.213Z,4
2023-03-31T07:50:07.010Z,4
2023-03-31T07:51:13.937Z,4
2023-03-31T07:52:20.684Z,4
2023-03-31T07:53:27.438Z,4
2023-03-31T07:54:34.247Z,4
2023-03-31T07:55:41.002Z,4
2023-03-31T07:56:47.922Z,5
2023-03-31T07:57:54.681Z,4
2023-03-31T07:59:01.451Z,4
2023-03-31T08:00:08.247Z,4
2023-03-31T08:01:15.325Z,4
2023-03-31T08:02:22.321Z,4
2023-03-31T08:03:29.041Z,4
2023-03-31T08:04:35.841Z,4
2023-03-31T08:05:42.573Z,5
2023-03-31T08:06:49.330Z,4
2023-03-31T08:07:56.017Z,4
2023-03-31T08:09:02.815Z,4
2023-03-31T08:10:09.581Z,4
2023-03-31T08:11:16.322Z,4
2023-03-31T08:12:23.070Z,4
2023-03-31T08:13:30.000Z,5
2023-03-31T08:14:40.887Z,5
2023-03-31T08:15:43.653Z,4
2023-03-31T08:16:50.353Z,4
2023-03-31T08:17:57.060Z,4
2023-03-31T08:19:03.951Z,4
2023-03-31T08:20:10.790Z,4
2023-03-31T08:21:17.446Z,4
2023-03-31T08:22:24.251Z,4
2023-03-31T08:23:31.003Z,4
2023-03-31T08:24:37.796Z,4
2023-03-31T08:25:44.669Z,4
2023-03-31T08:26:51.487Z,4
2023-03-31T08:27:58.253Z,4
2023-03-31T08:29:05.006Z,4
2023-03-31T08:30:11.781Z,4
2023-03-31T08:31:18.935Z,4
2023-03-31T08:32:25.639Z,3
2023-03-31T08:33:32.331Z,4
2023-03-31T08:34:39.092Z,4
2023-03-31T08:35:45.865Z,4
2023-03-31T08:36:52.578Z,3
2023-03-31T08:37:59.364Z,3
2023-03-31T08:39:06.172Z,3
2023-03-31T08:40:12.925Z,3
2023-03-31T08:41:19.687Z,3
2023-03-31T08:42:36.603Z,4
2023-03-31T08:43:49.179Z,3
2023-03-31T08:44:55.912Z,3
2023-03-31T08:46:12.963Z,3
2023-03-31T08:47:19.708Z,4
2023-03-31T08:48:26.565Z,3
2023-03-31T08:49:33.385Z,4
2023-03-31T08:50:42.763Z,4
2023-03-31T08:51:49.467Z,4
2023-03-31T08:52:56.212Z,4
2023-03-31T08:54:12.507Z,4
2023-03-31T08:55:20.446Z,4
2023-03-31T08:56:27.156Z,5
2023-03-31T08:57:36.911Z,4
2023-03-31T08:58:49.117Z,4
2023-03-31T08:59:55.857Z,4
2023-03-31T09:01:02.643Z,4
2023-03-31T09:02:12.260Z,4
2023-03-31T09:03:29.168Z,4
2023-03-31T09:04:40.979Z,4
2023-03-31T09:05:59.219Z,4
2023-03-31T09:07:02.189Z,5
2023-03-31T09:08:14.049Z,5
2023-03-31T09:09:30.955Z,5
2023-03-31T09:10:42.923Z,4
2023-03-31T09:11:59.781Z,4
2023-03-31T09:13:06.507Z,4
2023-03-31T09:14:13.312Z,4
2023-03-31T09:15:28.064Z,4
2023-03-31T09:16:39.952Z,4
2023-03-31T09:17:51.763Z,4
2023-03-31T09:18:58.448Z,4
2023-03-31T09:20:05.302Z,4
2023-03-31T09:21:17.170Z,4
2023-03-31T09:22:29.094Z,4
2023-03-31T09:23:35.848Z,4
2023-03-31T09:24:42.578Z,3
2023-03-31T09:25:52.125Z,3
2023-03-31T09:26:58.954Z,4
2023-03-31T09:28:08.737Z,4
2023-03-31T09:29:23.718Z,4
2023-03-31T09:30:40.689Z,4
2023-03-31T09:31:47.514Z,4
2023-03-31T09:32:54.206Z,4
2023-03-31T09:34:11.065Z,4
2023-03-31T09:35:17.862Z,4
2023-03-31T09:36:24.702Z,4
2023-03-31T09:37:31.375Z,5
2023-03-31T09:38:38.141Z,4
2023-03-31T09:39:44.898Z,4
2023-03-31T09:40:51.879Z,4
2023-03-31T09:41:58.617Z,4
2023-03-31T09:43:05.402Z,4
2023-03-31T09:44:12.128Z,4
2023-03-31T09:45:29.051Z,4
2023-03-31T09:46:35.894Z,4
2023-03-31T09:47:42.653Z,4
2023-03-31T09:48:49.290Z,4
2023-03-31T09:50:01.204Z,4
2023-03-31T09:51:08.226Z,4
2023-03-31T09:52:17.735Z,4
2023-03-31T09:53:30.208Z,4
2023-03-31T09:54:39.767Z,3
2023-03-31T09:55:49.306Z,4
2023-03-31T09:56:56.070Z,4
2023-03-31T09:58:02.875Z,4
2023-03-31T09:59:09.692Z,4
2023-03-31T10:00:16.902Z,4
2023-03-31T10:01:23.559Z,3
2023-03-31T10:02:30.266Z,4
2023-03-31T10:03:39.690Z,4
2023-03-31T10:04:54.484Z,4
2023-03-31T10:06:01.207Z,4
2023-03-31T10:07:13.841Z,4
2023-03-31T10:08:20.702Z,4
2023-03-31T10:09:29.969Z,4
2023-03-31T10:10:36.795Z,4
2023-03-31T10:11:43.597Z,4
2023-03-31T10:12:55.519Z,4
2023-03-31T10:14:02.402Z,5
2023-03-31T10:15:14.381Z,4
2023-03-31T10:16:24.258Z,4
2023-03-31T10:17:33.987Z,4
2023-03-31T10:18:37.934Z,4
2023-03-31T10:19:44.536Z,4
2023-03-31T10:20:54.385Z,3
2023-03-31T10:22:01.203Z,4
2023-03-31T10:23:12.928Z,4
2023-03-31T10:24:19.836Z,4
2023-03-31T10:25:26.624Z,4
2023-03-31T10:26:33.433Z,4
2023-03-31T10:27:40.242Z,4
2023-03-31T10:28:47.034Z,4
2023-03-31T10:29:53.785Z,5
2023-03-31T10:31:00.699Z,5
2023-03-31T10:32:07.508Z,5
2023-03-31T10:33:22.973Z,4
2023-03-31T10:34:26.147Z,4
2023-03-31T10:35:32.975Z,5
2023-03-31T10:36:39.717Z,4
2023-03-31T10:37:49.296Z,4
2023-03-31T10:38:58.969Z,4
2023-03-31T10:40:08.679Z,4
2023-03-31T10:41:20.562Z,3
2023-03-31T10:42:30.109Z,3
2023-03-31T10:43:36.846Z,3
2023-03-31T10:44:43.661Z,4
2023-03-31T10:45:50.451Z,3
2023-03-31T10:46:57.399Z,3
2023-03-31T10:48:07.117Z,3
2023-03-31T10:49:21.346Z,3
2023-03-31T10:50:28.120Z,3
2023-03-31T10:51:34.944Z,3
2023-03-31T10:52:41.726Z,3
2023-03-31T10:53:48.553Z,4
2023-03-31T10:54:55.269Z,4
2023-03-31T10:56:02.152Z,4
2023-03-31T10:57:12.059Z,3
2023-03-31T10:58:18.915Z,3
2023-03-31T10:59:30.903Z,3
2023-03-31T11:00:45.515Z,4
2023-03-31T11:02:00.710Z,4
2023-03-31T11:03:16.932Z,3
2023-03-31T11:04:28.646Z,3
2023-03-31T11:05:40.509Z,4
2023-03-31T11:06:55.258Z,4
2023-03-31T11:08:12.244Z,3
2023-03-31T11:09:29.164Z,4
2023-03-31T11:10:41.090Z,3
2023-03-31T11:11:52.916Z,3
2023-03-31T11:13:04.679Z,3
2023-03-31T11:14:21.730Z,3
2023-03-31T11:15:38.678Z,3
2023-03-31T11:16:50.527Z,3
2023-03-31T11:18:07.550Z,2
2023-03-31T11:19:24.362Z,3
2023-03-31T11:20:33.780Z,3
2023-03-31T11:21:50.681Z,4
2023-03-31T11:23:00.408Z,3
2023-03-31T11:24:14.872Z,2
2023-03-31T11:25:31.835Z,2
2023-03-31T11:26:48.748Z,2
2023-03-31T11:28:00.636Z,2
2023-03-31T11:29:17.513Z,2
2023-03-31T11:30:32.185Z,2
2023-03-31T11:31:41.541Z,4
2023-03-31T11:32:53.460Z,3
2023-03-31T11:34:10.308Z,4
2023-03-31T11:35:17.034Z,4
2023-03-31T11:36:29.554Z,3
2023-03-31T11:37:41.374Z,2
2023-03-31T11:38:53.214Z,3
2023-03-31T11:40:02.963Z,2
2023-03-31T11:41:14.864Z,2
2023-03-31T11:42:24.374Z,2
2023-03-31T11:43:31.168Z,2
2023-03-31T11:44:43.044Z,2
2023-03-31T11:45:49.850Z,2
2023-03-31T11:47:01.822Z,2
2023-03-31T11:48:13.813Z,2
2023-03-31T11:49:30.709Z,3
2023-03-31T11:50:40.222Z,3
2023-03-31T11:51:46.866Z,3
2023-03-31T11:52:56.539Z,3
2023-03-31T11:54:03.440Z,2
2023-03-31T11:55:10.318Z,2
2023-03-31T11:56:20.118Z,3
2023-03-31T11:57:27.034Z,2
2023-03-31T11:58:36.308Z,3
2023-03-31T11:59:43.040Z,2
2023-03-31T12:00:49.883Z,3
2023-03-31T12:01:56.647Z,2
2023-03-31T12:03:08.543Z,2
2023-03-31T12:04:18.000Z,1
2023-03-31T12:05:32.480Z,2
2023-03-31T12:06:39.264Z,1
2023-03-31T12:07:45.984Z,1
2023-03-31T12:08:55.672Z,2
2023-03-31T12:10:10.328Z,2
2023-03-31T12:11:25.236Z,2
2023-03-31T12:12:40.241Z,2
2023-03-31T12:13:49.653Z,2
2023-03-31T12:14:56.403Z,2
2023-03-31T12:16:06.197Z,2
2023-03-31T12:17:15.707Z,2
2023-03-31T12:18:30.540Z,2
2023-03-31T12:19:37.272Z,2
2023-03-31T12:20:54.280Z,1
2023-03-31T12:22:01.060Z,1
2023-03-31T12:23:12.916Z,1
2023-03-31T12:24:22.609Z,2
2023-03-31T12:25:29.393Z,2
2023-03-31T12:26:36.243Z,2
2023-03-31T12:27:53.136Z,2
2023-03-31T12:29:00.009Z,2
2023-03-31T12:30:09.657Z,2
2023-03-31T12:31:19.599Z,2
2023-03-31T12:32:26.369Z,1
2023-03-31T12:33:33.121Z,2
2023-03-31T12:34:42.914Z,2
2023-03-31T12:35:54.863Z,2
2023-03-31T12:37:06.774Z,2
2023-03-31T12:38:18.674Z,2
2023-03-31T12:39:35.564Z,2
2023-03-31T12:40:50.024Z,2
2023-03-31T12:42:01.867Z,2
2023-03-31T12:43:16.475Z,2
2023-03-31T12:44:31.355Z,2
2023-03-31T12:45:45.816Z,2
2023-03-31T12:46:57.628Z,2
2023-03-31T12:48:12.219Z,2
2023-03-31T12:49:27.075Z,2
2023-03-31T12:50:44.019Z,2
2023-03-31T12:51:56.683Z,2
2023-03-31T12:53:08.519Z,2
2023-03-31T12:54:17.991Z,2
2023-03-31T12:55:34.866Z,2
2023-03-31T12:56:47.296Z,2
2023-03-31T12:58:04.207Z,2
2023-03-31T12:59:21.168Z,2
2023-03-31T13:00:33.257Z,2
2023-03-31T13:01:40.206Z,2
2023-03-31T13:02:57.074Z,2
2023-03-31T13:04:15.401Z,2
2023-03-31T13:05:20.778Z,2
2023-03-31T13:06:37.717Z,2
2023-03-31T13:07:44.541Z,2
2023-03-31T13:08:51.434Z,2
2023-03-31T13:10:06.142Z,2
2023-03-31T13:11:20.680Z,3
2023-03-31T13:12:37.678Z,3
2023-03-31T13:13:54.446Z,4
2023-03-31T13:14:59.207Z,5
2023-03-31T13:16:06.019Z,8
2023-03-31T13:17:12.798Z,7
2023-03-31T13:18:27.197Z,7
2023-03-31T13:19:34.016Z,4
2023-03-31T13:20:40.841Z,4
2023-03-31T13:21:47.623Z,4
2023-03-31T13:22:57.394Z,6
2023-03-31T13:24:09.230Z,7
2023-03-31T13:25:15.966Z,6
2023-03-31T13:26:32.836Z,7
2023-03-31T13:27:39.716Z,5
2023-03-31T13:28:51.561Z,6
2023-03-31T13:30:03.352Z,6
2023-03-31T13:31:10.316Z,6
2023-03-31T13:32:17.094Z,5
2023-03-31T13:33:26.640Z,4
2023-03-31T13:34:38.552Z,5
2023-03-31T13:35:45.595Z,4
2023-03-31T13:36:57.405Z,5
2023-03-31T13:38:12.116Z,3
2023-03-31T13:39:26.684Z,4
2023-03-31T13:40:33.602Z,4
2023-03-31T13:41:50.563Z,4
2023-03-31T13:43:05.115Z,4
2023-03-31T13:44:19.659Z,4
2023-03-31T13:45:34.258Z,5
2023-03-31T13:46:46.131Z,4
2023-03-31T13:48:03.124Z,5
2023-03-31T13:49:19.990Z,4
2023-03-31T13:50:29.490Z,5
2023-03-31T13:51:46.581Z,5
2023-03-31T13:52:58.438Z,4
2023-03-31T13:54:10.299Z,4
2023-03-31T13:55:22.522Z,4
2023-03-31T13:56:37.283Z,4
2023-03-31T13:57:54.115Z,4
2023-03-31T13:59:06.058Z,4
2023-03-31T14:00:17.885Z,5
2023-03-31T14:01:32.503Z,3
2023-03-31T14:02:47.124Z,3
2023-03-31T14:03:56.572Z,3
2023-03-31T14:05:11.284Z,3
2023-03-31T14:06:23.225Z,3
2023-03-31T14:07:40.112Z,2
2023-03-31T14:08:46.875Z,3
2023-03-31T14:09:56.300Z,2
2023-03-31T14:11:03.138Z,2
2023-03-31T14:12:19.995Z,2
2023-03-31T14:13:34.624Z,3
2023-03-31T14:14:41.474Z,3
2023-03-31T14:15:48.197Z,3
2023-03-31T14:17:00.095Z,3
2023-03-31T14:18:06.864Z,3
2023-03-31T14:19:13.568Z,3
2023-03-31T14:20:25.423Z,3
2023-03-31T14:21:32.180Z,3
2023-03-31T14:22:43.994Z,3
2023-03-31T14:23:58.855Z,3
2023-03-31T14:25:10.686Z,3
2023-03-31T14:26:20.189Z,3
2023-03-31T14:27:37.910Z,3
2023-03-31T14:28:50.002Z,3
2023-03-31T14:30:01.955Z,4
2023-03-31T14:31:08.893Z,3
2023-03-31T14:32:20.642Z,3
2023-03-31T14:33:32.472Z,3
2023-03-31T14:34:49.312Z,3
2023-03-31T14:36:01.239Z,3
2023-03-31T14:37:13.065Z,3
2023-03-31T14:38:19.888Z,4
2023-03-31T14:39:26.685Z,3
2023-03-31T14:40:33.452Z,4
2023-03-31T14:41:40.181Z,3
2023-03-31T14:42:46.978Z,4
2023-03-31T14:43:53.850Z,4
2023-03-31T14:45:00.697Z,4
2023-03-31T14:46:07.747Z,4
2023-03-31T14:47:14.448Z,3
2023-03-31T14:48:24.248Z,3
2023-03-31T14:49:31.122Z,5
2023-03-31T14:50:37.986Z,6
2023-03-31T14:51:44.723Z,8
2023-03-31T14:52:54.122Z,5
2023-03-31T14:54:00.929Z,4
2023-03-31T14:55:07.781Z,7
2023-03-31T14:56:17.512Z,5
2023-03-31T14:57:24.352Z,5
2023-03-31T14:58:33.803Z,4
2023-03-31T14:59:40.771Z,4
2023-03-31T15:00:47.549Z,4
2023-03-31T15:01:54.391Z,4
2023-03-31T15:03:01.277Z,3
2023-03-31T15:04:08.046Z,3
2023-03-31T15:05:14.872Z,4
2023-03-31T15:06:29.260Z,3
2023-03-31T15:07:36.053Z,4
2023-03-31T15:08:42.930Z,3
2023-03-31T15:09:49.709Z,3
2023-03-31T15:11:02.248Z,4
2023-03-31T15:12:03.231Z,4
2023-03-31T15:13:10.067Z,3
2023-03-31T15:14:21.943Z,4
2023-03-31T15:15:34.599Z,4
2023-03-31T15:16:41.356Z,5
2023-03-31T15:17:48.073Z,5
2023-03-31T15:18:54.970Z,4
2023-03-31T15:20:01.838Z,5
2023-03-31T15:21:18.816Z,5
2023-03-31T15:22:25.503Z,4
2023-03-31T15:23:32.465Z,5
2023-03-31T15:24:39.228Z,5
2023-03-31T15:25:45.984Z,4
2023-03-31T15:26:52.838Z,4
2023-03-31T15:28:02.290Z,4
2023-03-31T15:29:09.079Z,4
2023-03-31T15:30:15.921Z,5
2023-03-31T15:31:22.794Z,5
2023-03-31T15:32:29.649Z,5
2023-03-31T15:33:39.128Z,4
2023-03-31T15:34:45.860Z,4
2023-03-31T15:35:52.681Z,5
2023-03-31T15:36:59.545Z,5
2023-03-31T15:38:06.385Z,5
2023-03-31T15:39:13.310Z,4
2023-03-31T15:40:20.077Z,4
2023-03-31T15:41:26.890Z,4
2023-03-31T15:42:34.976Z,4
2023-03-31T15:43:40.584Z,4
2023-03-31T15:44:50.268Z,4
2023-03-31T15:45:57.074Z,5
2023-03-31T15:47:03.812Z,4
2023-03-31T15:48:20.759Z,4
2023-03-31T15:49:32.617Z,4
2023-03-31T15:50:39.499Z,4
2023-03-31T15:51:46.261Z,4
2023-03-31T15:52:53.205Z,4
2023-03-31T15:53:59.953Z,4
2023-03-31T15:55:06.774Z,5
2023-03-31T15:56:23.679Z,4
2023-03-31T15:57:38.289Z,4
2023-03-31T15:58:45.110Z,4
2023-03-31T15:59:57.263Z,4
2023-03-31T16:01:03.994Z,4
2023-03-31T16:02:10.820Z,5
2023-03-31T16:03:24.116Z,5
2023-03-31T16:04:29.559Z,4
2023-03-31T16:05:40.528Z,4
2023-03-31T16:06:43.522Z,4
2023-03-31T16:07:55.377Z,4
2023-03-31T16:09:02.121Z,3
2023-03-31T16:10:08.933Z,4
2023-03-31T16:11:23.465Z,4
2023-03-31T16:12:35.297Z,4
2023-03-31T16:13:44.851Z,3
2023-03-31T16:14:54.400Z,5
2023-03-31T16:16:01.155Z,4
2023-03-31T16:17:08.021Z,6
2023-03-31T16:18:14.888Z,6
2023-03-31T16:19:21.933Z,7
2023-03-31T16:20:28.721Z,7
2023-03-31T16:21:35.463Z,8
2023-03-31T16:22:42.271Z,12
2023-03-31T16:23:49.083Z,12
2023-03-31T16:24:55.970Z,11
2023-03-31T16:26:02.759Z,11
2023-03-31T16:27:09.522Z,13
2023-03-31T16:28:16.306Z,9
2023-03-31T16:29:23.071Z,12
2023-03-31T16:30:29.832Z,11
2023-03-31T16:31:36.668Z,8
2023-03-31T16:32:43.412Z,8
2023-03-31T16:34:00.265Z,8
2023-03-31T16:35:06.973Z,8
2023-03-31T16:36:13.729Z,8
2023-03-31T16:37:20.536Z,9
2023-03-31T16:38:27.252Z,7
2023-03-31T16:39:34.053Z,7
2023-03-31T16:40:40.848Z,8
2023-03-31T16:41:47.611Z,10
2023-03-31T16:42:54.441Z,9
2023-03-31T16:44:09.120Z,8
2023-03-31T16:45:15.912Z,8
2023-03-31T16:46:22.760Z,7
2023-03-31T16:47:35.414Z,8
2023-03-31T16:48:36.281Z,9
2023-03-31T16:49:43.141Z,9
2023-03-31T16:50:49.917Z,9